This is the latest recevied weather packets stored in our database for station/object EA6MW-10. If no packets are shown the sender has not sent any weather packets the latest 10 day(s).
| Time | Temp. | Humidity | Pressure | Rain* | Wind** | Luminosity | Snow |
|---|---|---|---|---|---|---|---|
| 1777745275 | 18.89° C | 51% | 1018.8 hPa | - | - | - | - |
| 1777744375 | 18.89° C | 55% | 1019 hPa | - | - | - | - |
| 1777743486 | 19.44° C | 52% | 1019.3 hPa | - | - | - | - |
| 1777743475 | 19.44° C | 52% | 1019.3 hPa | - | - | - | - |
| 1777742575 | 19.44° C | 53% | 1019.2 hPa | - | - | - | - |
| 1777741674 | 20° C | 55% | 1019.1 hPa | - | - | - | - |
| 1777740774 | 20.56° C | 53% | 1019 hPa | - | - | - | - |
| 1777739874 | 20.56° C | 51% | 1019 hPa | - | - | - | - |
| 1777738984 | 21.67° C | 50% | 1019.3 hPa | - | - | - | - |
| 1777738974 | 21.67° C | 50% | 1019.3 hPa | - | - | - | - |
| 1777738074 | 21.67° C | 49% | 1019.5 hPa | - | - | - | - |
| 1777737173 | 22.22° C | 47% | 1019.9 hPa | - | - | - | - |
| 1777736273 | 22.78° C | 49% | 1019.7 hPa | - | - | - | - |
| 1777735372 | 24.44° C | 46% | 1019.7 hPa | - | - | - | - |
| 1777734472 | 24.44° C | 47% | 1019.9 hPa | - | - | - | - |
| 1777733571 | 25° C | 44% | 1019.7 hPa | - | - | - | - |
| 1777732671 | 26.11° C | 42% | 1019.8 hPa | - | - | - | - |
| 1777731771 | 26.67° C | 41% | 1020.1 hPa | - | - | - | - |
| 1777730871 | 27.78° C | 40% | 1020.3 hPa | - | - | - | - |
| 1777729970 | 26.67° C | 42% | 1020.4 hPa | - | - | - | - |
| 1777729070 | 29.44° C | 38% | 1020.5 hPa | - | - | - | - |
| 1777728170 | 29.44° C | 39% | 1020.7 hPa | - | - | - | - |
| 1777727269 | 27.22° C | 45% | 1020.9 hPa | - | - | - | - |
| 1777726369 | 27.22° C | 45% | 1021 hPa | - | - | - | - |
| 1777725469 | 27.78° C | 43% | 1020.8 hPa | - | - | - | - |
* Rain since midnight (hover to see other rain measurements)
** Current wind speed in m/s (hover to see current wind gust speed)